sensor_id;sensor_type;location;lat;lon;timestamp;pressure;altitude;pressure_sealevel;temperature;humidity
72612;BME280;60655;52.182;4.474;2024-01-15T00:01:40;100342.31;;;4.23;83.11
72612;BME280;60655;52.182;4.474;2024-01-15T00:03:42;100337.59;;;4.18;89.90
72612;BME280;60655;52.182;4.474;2024-01-15T00:05:43;100349.72;;;3.98;94.50
72612;BME280;60655;52.182;4.474;2024-01-15T00:07:44;100338.69;;;3.88;96.21
72612;BME280;60655;52.182;4.474;2024-01-15T00:09:45;100334.25;;;3.88;98.08
72612;BME280;60655;52.182;4.474;2024-01-15T00:11:46;100335.34;;;3.79;98.64
72612;BME280;60655;52.182;4.474;2024-01-15T00:13:47;100331.72;;;3.80;97.46
72612;BME280;60655;52.182;4.474;2024-01-15T00:15:47;100321.38;;;3.79;96.81
72612;BME280;60655;52.182;4.474;2024-01-15T00:17:48;100310.47;;;3.75;94.82
72612;BME280;60655;52.182;4.474;2024-01-15T00:19:49;100313.50;;;3.79;92.98
72612;BME280;60655;52.182;4.474;2024-01-15T00:21:50;100313.78;;;3.84;90.66
72612;BME280;60655;52.182;4.474;2024-01-15T00:23:51;100318.47;;;3.88;90.61
72612;BME280;60655;52.182;4.474;2024-01-15T00:25:52;100296.56;;;3.81;90.18
72612;BME280;60655;52.182;4.474;2024-01-15T00:27:53;100297.00;;;3.85;92.51
72612;BME280;60655;52.182;4.474;2024-01-15T00:29:54;100297.47;;;3.88;92.47
72612;BME280;60655;52.182;4.474;2024-01-15T00:31:55;100295.66;;;3.89;92.98
72612;BME280;60655;52.182;4.474;2024-01-15T00:33:56;100291.09;;;3.97;92.59
72612;BME280;60655;52.182;4.474;2024-01-15T00:35:58;100284.03;;;3.98;91.16
72612;BME280;60655;52.182;4.474;2024-01-15T00:37:59;100288.72;;;4.02;91.29
72612;BME280;60655;52.182;4.474;2024-01-15T00:40:00;100283.47;;;4.02;90.20
72612;BME280;60655;52.182;4.474;2024-01-15T00:42:01;100278.22;;;4.02;87.87
72612;BME280;60655;52.182;4.474;2024-01-15T00:44:01;100285.97;;;4.11;87.76
72612;BME280;60655;52.182;4.474;2024-01-15T00:46:04;100273.00;;;4.09;88.18
72612;BME280;60655;52.182;4.474;2024-01-15T00:48:05;100275.25;;;4.12;89.59
72612;BME280;60655;52.182;4.474;2024-01-15T00:50:06;100271.25;;;4.16;92.04
72612;BME280;60655;52.182;4.474;2024-01-15T00:52:07;100280.16;;;4.15;92.60
72612;BME280;60655;52.182;4.474;2024-01-15T00:54:08;100279.97;;;4.17;92.45
72612;BME280;60655;52.182;4.474;2024-01-15T00:56:09;100272.81;;;4.11;89.92
72612;BME280;60655;52.182;4.474;2024-01-15T00:58:09;100269.00;;;4.13;89.33
72612;BME280;60655;52.182;4.474;2024-01-15T01:00:11;100274.50;;;4.18;90.07
72612;BME280;60655;52.182;4.474;2024-01-15T01:02:12;100283.97;;;4.13;94.08
72612;BME280;60655;52.182;4.474;2024-01-15T01:04:13;100276.63;;;4.08;95.82
72612;BME280;60655;52.182;4.474;2024-01-15T01:06:14;100273.34;;;3.99;98.08
72612;BME280;60655;52.182;4.474;2024-01-15T01:08:15;100275.34;;;3.97;100.00
72612;BME280;60655;52.182;4.474;2024-01-15T01:10:16;100272.53;;;3.99;100.00
72612;BME280;60655;52.182;4.474;2024-01-15T01:12:17;100274.00;;;3.87;100.00
72612;BME280;60655;52.182;4.474;2024-01-15T01:14:18;100270.44;;;3.73;100.00
72612;BME280;60655;52.182;4.474;2024-01-15T01:16:19;100270.97;;;3.68;100.00
72612;BME280;60655;52.182;4.474;2024-01-15T01:18:20;100269.63;;;3.58;100.00
72612;BME280;60655;52.182;4.474;2024-01-15T01:20:21;100262.94;;;3.55;100.00
72612;BME280;60655;52.182;4.474;2024-01-15T01:22:22;100273.81;;;3.52;100.00
72612;BME280;60655;52.182;4.474;2024-01-15T01:24:22;100267.47;;;3.47;100.00
72612;BME280;60655;52.182;4.474;2024-01-15T01:26:23;100255.78;;;3.49;100.00
72612;BME280;60655;52.182;4.474;2024-01-15T01:28:24;100264.31;;;3.51;100.00
72612;BME280;60655;52.182;4.474;2024-01-15T01:30:25;100266.56;;;3.54;99.54
72612;BME280;60655;52.182;4.474;2024-01-15T01:32:26;100265.56;;;3.55;98.50
72612;BME280;60655;52.182;4.474;2024-01-15T01:34:27;100251.44;;;3.56;97.42
72612;BME280;60655;52.182;4.474;2024-01-15T01:36:28;100255.22;;;3.68;97.96
72612;BME280;60655;52.182;4.474;2024-01-15T01:38:29;100250.78;;;3.69;98.49
72612;BME280;60655;52.182;4.474;2024-01-15T01:40:30;100249.78;;;3.70;97.89
72612;BME280;60655;52.182;4.474;2024-01-15T01:42:31;100252.78;;;3.67;97.82
72612;BME280;60655;52.182;4.474;2024-01-15T01:44:32;100245.22;;;3.79;99.64
72612;BME280;60655;52.182;4.474;2024-01-15T01:46:33;100244.03;;;3.81;99.61
72612;BME280;60655;52.182;4.474;2024-01-15T01:48:35;100240.53;;;3.74;98.33
72612;BME280;60655;52.182;4.474;2024-01-15T01:50:36;100242.34;;;3.73;97.88
72612;BME280;60655;52.182;4.474;2024-01-15T01:52:37;100245.38;;;3.77;97.50
72612;BME280;60655;52.182;4.474;2024-01-15T01:54:40;100245.91;;;3.66;94.98
72612;BME280;60655;52.182;4.474;2024-01-15T01:56:41;100249.22;;;3.75;94.23
72612;BME280;60655;52.182;4.474;2024-01-15T01:58:43;100260.66;;;3.67;92.51
72612;BME280;60655;52.182;4.474;2024-01-15T02:00:45;100256.53;;;3.79;93.50
72612;BME280;60655;52.182;4.474;2024-01-15T02:02:47;100244.72;;;3.68;92.49
72612;BME280;60655;52.182;4.474;2024-01-15T02:04:49;100255.41;;;3.67;93.31
72612;BME280;60655;52.182;4.474;2024-01-15T02:06:50;100255.41;;;3.67;94.22
72612;BME280;60655;52.182;4.474;2024-01-15T02:08:51;100255.66;;;3.72;95.47
72612;BME280;60655;52.182;4.474;2024-01-15T02:10:52;100261.91;;;3.71;96.35
72612;BME280;60655;52.182;4.474;2024-01-15T02:12:53;100248.41;;;3.74;97.09
72612;BME280;60655;52.182;4.474;2024-01-15T02:14:54;100250.47;;;3.79;97.08
72612;BME280;60655;52.182;4.474;2024-01-15T02:16:55;100237.59;;;3.84;96.87
72612;BME280;60655;52.182;4.474;2024-01-15T02:18:55;100238.59;;;3.83;96.90
72612;BME280;60655;52.182;4.474;2024-01-15T02:20:56;100240.22;;;3.84;96.91
72612;BME280;60655;52.182;4.474;2024-01-15T02:23:08;100239.22;;;3.85;97.21
72612;BME280;60655;52.182;4.474;2024-01-15T02:25:12;100235.88;;;3.76;96.87
72612;BME280;60655;52.182;4.474;2024-01-15T02:27:13;100237.50;;;3.77;97.44
72612;BME280;60655;52.182;4.474;2024-01-15T02:29:14;100239.53;;;3.75;97.01
72612;BME280;60655;52.182;4.474;2024-01-15T02:31:15;100234.03;;;3.70;97.16
72612;BME280;60655;52.182;4.474;2024-01-15T02:33:16;100230.59;;;3.69;98.13
72612;BME280;60655;52.182;4.474;2024-01-15T02:35:17;100222.69;;;3.69;99.51
72612;BME280;60655;52.182;4.474;2024-01-15T02:37:18;100218.31;;;3.77;100.00
72612;BME280;60655;52.182;4.474;2024-01-15T02:39:19;100210.66;;;3.75;100.00
72612;BME280;60655;52.182;4.474;2024-01-15T02:41:20;100215.50;;;3.78;100.00
72612;BME280;60655;52.182;4.474;2024-01-15T02:43:21;100216.28;;;3.72;100.00
72612;BME280;60655;52.182;4.474;2024-01-15T02:45:22;100207.13;;;3.68;100.00
72612;BME280;60655;52.182;4.474;2024-01-15T02:47:23;100216.13;;;3.80;100.00
72612;BME280;60655;52.182;4.474;2024-01-15T02:49:24;100207.69;;;3.85;100.00
72612;BME280;60655;52.182;4.474;2024-01-15T02:51:25;100218.88;;;3.93;100.00
72612;BME280;60655;52.182;4.474;2024-01-15T02:53:26;100220.25;;;3.89;100.00
72612;BME280;60655;52.182;4.474;2024-01-15T02:55:27;100217.44;;;3.91;99.84
72612;BME280;60655;52.182;4.474;2024-01-15T02:57:30;100216.72;;;3.97;95.79
72612;BME280;60655;52.182;4.474;2024-01-15T02:59:30;100213.72;;;4.00;91.39
72612;BME280;60655;52.182;4.474;2024-01-15T03:01:31;100219.44;;;4.10;90.56
72612;BME280;60655;52.182;4.474;2024-01-15T03:03:32;100209.00;;;4.17;89.44
72612;BME280;60655;52.182;4.474;2024-01-15T03:05:34;100204.97;;;4.21;90.06
72612;BME280;60655;52.182;4.474;2024-01-15T03:07:35;100212.50;;;4.24;90.39
72612;BME280;60655;52.182;4.474;2024-01-15T03:09:36;100220.94;;;4.19;91.60
72612;BME280;60655;52.182;4.474;2024-01-15T03:11:38;100222.41;;;4.00;91.63
72612;BME280;60655;52.182;4.474;2024-01-15T03:13:39;100229.03;;;3.75;92.63
72612;BME280;60655;52.182;4.474;2024-01-15T03:15:40;100237.38;;;3.64;94.16
72612;BME280;60655;52.182;4.474;2024-01-15T03:17:41;100238.81;;;3.45;95.99
72612;BME280;60655;52.182;4.474;2024-01-15T03:19:43;100233.28;;;3.25;98.03
72612;BME280;60655;52.182;4.474;2024-01-15T03:21:44;100221.97;;;3.25;100.00
72612;BME280;60655;52.182;4.474;2024-01-15T03:23:45;100214.75;;;3.27;100.00
72612;BME280;60655;52.182;4.474;2024-01-15T03:25:46;100212.47;;;3.24;100.00
72612;BME280;60655;52.182;4.474;2024-01-15T03:27:47;100209.41;;;3.20;100.00
72612;BME280;60655;52.182;4.474;2024-01-15T03:29:48;100205.41;;;3.24;100.00
72612;BME280;60655;52.182;4.474;2024-01-15T03:31:49;100205.09;;;3.13;100.00
72612;BME280;60655;52.182;4.474;2024-01-15T03:33:49;100202.00;;;3.09;100.00
72612;BME280;60655;52.182;4.474;2024-01-15T03:35:50;100198.41;;;3.10;100.00
72612;BME280;60655;52.182;4.474;2024-01-15T03:37:51;100201.38;;;3.07;100.00
72612;BME280;60655;52.182;4.474;2024-01-15T03:39:52;100204.19;;;3.05;100.00
72612;BME280;60655;52.182;4.474;2024-01-15T03:41:53;100213.41;;;3.01;100.00
72612;BME280;60655;52.182;4.474;2024-01-15T03:43:54;100206.25;;;2.95;100.00
72612;BME280;60655;52.182;4.474;2024-01-15T03:45:55;100198.03;;;2.98;100.00
72612;BME280;60655;52.182;4.474;2024-01-15T03:47:56;100190.34;;;3.12;100.00
72612;BME280;60655;52.182;4.474;2024-01-15T03:49:57;100189.16;;;3.14;100.00
72612;BME280;60655;52.182;4.474;2024-01-15T03:51:58;100180.13;;;3.17;100.00
72612;BME280;60655;52.182;4.474;2024-01-15T03:53:58;100176.19;;;3.27;100.00
72612;BME280;60655;52.182;4.474;2024-01-15T03:55:59;100173.56;;;3.27;100.00
72612;BME280;60655;52.182;4.474;2024-01-15T03:58:00;100175.63;;;3.32;100.00
72612;BME280;60655;52.182;4.474;2024-01-15T04:00:01;100174.25;;;3.36;100.00
72612;BME280;60655;52.182;4.474;2024-01-15T04:02:02;100176.97;;;3.43;100.00
72612;BME280;60655;52.182;4.474;2024-01-15T04:04:03;100171.53;;;3.44;100.00
72612;BME280;60655;52.182;4.474;2024-01-15T04:06:04;100166.69;;;3.48;100.00
72612;BME280;60655;52.182;4.474;2024-01-15T04:08:05;100169.94;;;3.50;100.00
72612;BME280;60655;52.182;4.474;2024-01-15T04:10:07;100162.59;;;3.60;100.00
72612;BME280;60655;52.182;4.474;2024-01-15T04:12:08;100160.50;;;3.77;100.00
72612;BME280;60655;52.182;4.474;2024-01-15T04:14:09;100164.28;;;3.67;100.00
72612;BME280;60655;52.182;4.474;2024-01-15T04:16:09;100171.16;;;3.68;100.00
72612;BME280;60655;52.182;4.474;2024-01-15T04:18:10;100169.16;;;3.70;100.00
72612;BME280;60655;52.182;4.474;2024-01-15T04:20:11;100176.09;;;3.78;100.00
72612;BME280;60655;52.182;4.474;2024-01-15T04:22:12;100168.81;;;3.73;100.00
72612;BME280;60655;52.182;4.474;2024-01-15T04:24:13;100179.13;;;3.75;100.00
72612;BME280;60655;52.182;4.474;2024-01-15T04:26:14;100177.25;;;3.69;97.64
72612;BME280;60655;52.182;4.474;2024-01-15T04:28:15;100177.59;;;3.66;97.53
72612;BME280;60655;52.182;4.474;2024-01-15T04:30:16;100167.41;;;3.78;98.01
72612;BME280;60655;52.182;4.474;2024-01-15T04:32:17;100173.88;;;3.75;99.80
72612;BME280;60655;52.182;4.474;2024-01-15T04:34:18;100170.81;;;3.71;100.00
72612;BME280;60655;52.182;4.474;2024-01-15T04:36:18;100160.84;;;3.67;100.00
72612;BME280;60655;52.182;4.474;2024-01-15T04:38:19;100150.59;;;3.72;100.00
72612;BME280;60655;52.182;4.474;2024-01-15T04:40:20;100144.41;;;3.58;100.00
72612;BME280;60655;52.182;4.474;2024-01-15T04:42:21;100150.56;;;3.51;98.39
72612;BME280;60655;52.182;4.474;2024-01-15T04:44:22;100144.78;;;3.55;95.32
72612;BME280;60655;52.182;4.474;2024-01-15T04:46:23;100140.06;;;3.51;90.85
72612;BME280;60655;52.182;4.474;2024-01-15T04:48:24;100141.69;;;3.52;89.01
72612;BME280;60655;52.182;4.474;2024-01-15T04:50:25;100142.50;;;3.52;87.44
72612;BME280;60655;52.182;4.474;2024-01-15T04:52:26;100147.31;;;3.49;88.06
72612;BME280;60655;52.182;4.474;2024-01-15T04:54:27;100141.88;;;3.50;89.21
72612;BME280;60655;52.182;4.474;2024-01-15T04:56:27;100135.16;;;3.62;91.45
72612;BME280;60655;52.182;4.474;2024-01-15T04:58:28;100139.78;;;3.60;93.11
72612;BME280;60655;52.182;4.474;2024-01-15T05:00:29;100132.81;;;3.53;95.49
72612;BME280;60655;52.182;4.474;2024-01-15T05:02:30;100137.44;;;3.51;97.20
72612;BME280;60655;52.182;4.474;2024-01-15T05:04:31;100133.56;;;3.47;98.81
72612;BME280;60655;52.182;4.474;2024-01-15T05:06:33;100135.25;;;3.54;100.00
72612;BME280;60655;52.182;4.474;2024-01-15T05:08:34;100147.56;;;3.54;100.00
72612;BME280;60655;52.182;4.474;2024-01-15T05:10:35;100131.81;;;3.54;100.00
72612;BME280;60655;52.182;4.474;2024-01-15T05:12:36;100135.78;;;3.43;100.00
72612;BME280;60655;52.182;4.474;2024-01-15T05:14:37;100134.78;;;3.44;100.00
72612;BME280;60655;52.182;4.474;2024-01-15T05:16:38;100134.16;;;3.42;100.00
72612;BME280;60655;52.182;4.474;2024-01-15T05:18:39;100130.09;;;3.39;100.00
72612;BME280;60655;52.182;4.474;2024-01-15T05:20:40;100130.53;;;3.43;100.00
72612;BME280;60655;52.182;4.474;2024-01-15T05:22:41;100128.63;;;3.37;100.00
72612;BME280;60655;52.182;4.474;2024-01-15T05:24:42;100123.56;;;3.35;100.00
72612;BME280;60655;52.182;4.474;2024-01-15T05:26:43;100108.25;;;3.39;100.00
72612;BME280;60655;52.182;4.474;2024-01-15T05:28:46;100108.63;;;3.36;100.00
72612;BME280;60655;52.182;4.474;2024-01-15T05:30:47;100115.19;;;3.47;100.00
72612;BME280;60655;52.182;4.474;2024-01-15T05:32:48;100109.16;;;3.46;100.00
72612;BME280;60655;52.182;4.474;2024-01-15T05:34:49;100111.44;;;3.56;100.00
72612;BME280;60655;52.182;4.474;2024-01-15T05:36:50;100110.94;;;3.67;100.00
72612;BME280;60655;52.182;4.474;2024-01-15T05:38:51;100105.41;;;3.83;100.00
72612;BME280;60655;52.182;4.474;2024-01-15T05:40:53;100109.91;;;3.89;100.00
72612;BME280;60655;52.182;4.474;2024-01-15T05:42:54;100107.72;;;3.93;100.00
72612;BME280;60655;52.182;4.474;2024-01-15T05:44:54;100106.91;;;3.92;100.00
72612;BME280;60655;52.182;4.474;2024-01-15T05:46:55;100111.53;;;3.90;100.00
72612;BME280;60655;52.182;4.474;2024-01-15T05:48:56;100103.84;;;3.89;100.00
72612;BME280;60655;52.182;4.474;2024-01-15T05:50:57;100109.53;;;3.92;100.00
72612;BME280;60655;52.182;4.474;2024-01-15T05:52:58;100127.25;;;3.84;100.00
72612;BME280;60655;52.182;4.474;2024-01-15T05:54:59;100127.91;;;3.64;100.00
72612;BME280;60655;52.182;4.474;2024-01-15T05:57:00;100112.56;;;3.47;100.00
72612;BME280;60655;52.182;4.474;2024-01-15T05:59:01;100130.44;;;3.36;100.00
72612;BME280;60655;52.182;4.474;2024-01-15T06:01:02;100137.91;;;3.18;100.00
72612;BME280;60655;52.182;4.474;2024-01-15T06:03:03;100136.97;;;3.04;100.00
72612;BME280;60655;52.182;4.474;2024-01-15T06:05:04;100133.34;;;3.05;100.00
72612;BME280;60655;52.182;4.474;2024-01-15T06:07:05;100142.13;;;2.98;100.00
72612;BME280;60655;52.182;4.474;2024-01-15T06:09:05;100128.50;;;2.88;100.00
72612;BME280;60655;52.182;4.474;2024-01-15T06:11:06;100121.88;;;2.92;100.00
72612;BME280;60655;52.182;4.474;2024-01-15T06:13:08;100140.88;;;2.94;100.00
72612;BME280;60655;52.182;4.474;2024-01-15T06:15:09;100151.00;;;2.97;100.00
72612;BME280;60655;52.182;4.474;2024-01-15T06:17:10;100149.28;;;2.89;100.00
72612;BME280;60655;52.182;4.474;2024-01-15T06:19:11;100135.38;;;2.74;100.00
72612;BME280;60655;52.182;4.474;2024-01-15T06:21:12;100132.84;;;2.66;100.00
72612;BME280;60655;52.182;4.474;2024-01-15T06:23:15;100124.16;;;2.65;100.00
72612;BME280;60655;52.182;4.474;2024-01-15T06:25:16;100104.63;;;2.68;100.00
72612;BME280;60655;52.182;4.474;2024-01-15T06:27:16;100110.06;;;2.66;100.00
72612;BME280;60655;52.182;4.474;2024-01-15T06:29:18;100112.31;;;2.69;100.00
72612;BME280;60655;52.182;4.474;2024-01-15T06:31:18;100109.06;;;2.67;100.00
72612;BME280;60655;52.182;4.474;2024-01-15T06:33:19;100126.53;;;2.75;100.00
72612;BME280;60655;52.182;4.474;2024-01-15T06:35:20;100132.22;;;2.79;100.00
72612;BME280;60655;52.182;4.474;2024-01-15T06:37:21;100137.47;;;2.79;100.00
72612;BME280;60655;52.182;4.474;2024-01-15T06:39:23;100139.19;;;2.86;100.00
72612;BME280;60655;52.182;4.474;2024-01-15T06:41:23;100155.00;;;2.63;100.00
72612;BME280;60655;52.182;4.474;2024-01-15T06:43:26;100166.75;;;2.38;100.00
72612;BME280;60655;52.182;4.474;2024-01-15T06:45:27;100162.63;;;2.06;100.00
72612;BME280;60655;52.182;4.474;2024-01-15T06:47:28;100158.34;;;1.90;100.00
72612;BME280;60655;52.182;4.474;2024-01-15T06:49:29;100148.84;;;1.89;100.00
72612;BME280;60655;52.182;4.474;2024-01-15T06:51:30;100142.41;;;1.77;100.00
72612;BME280;60655;52.182;4.474;2024-01-15T06:53:30;100142.84;;;1.66;100.00
72612;BME280;60655;52.182;4.474;2024-01-15T06:55:31;100141.03;;;1.66;100.00
72612;BME280;60655;52.182;4.474;2024-01-15T06:57:32;100132.91;;;1.76;100.00
72612;BME280;60655;52.182;4.474;2024-01-15T06:59:34;100131.69;;;1.87;100.00
72612;BME280;60655;52.182;4.474;2024-01-15T07:01:36;100129.25;;;1.85;100.00
72612;BME280;60655;52.182;4.474;2024-01-15T07:03:37;100125.94;;;1.91;100.00
72612;BME280;60655;52.182;4.474;2024-01-15T07:05:38;100127.03;;;2.12;100.00
72612;BME280;60655;52.182;4.474;2024-01-15T07:07:39;100111.16;;;2.13;100.00
72612;BME280;60655;52.182;4.474;2024-01-15T07:09:40;100102.75;;;2.32;100.00
72612;BME280;60655;52.182;4.474;2024-01-15T07:11:45;100099.88;;;2.42;100.00
72612;BME280;60655;52.182;4.474;2024-01-15T07:13:47;100100.13;;;2.32;100.00
72612;BME280;60655;52.182;4.474;2024-01-15T07:15:48;100107.56;;;2.44;100.00
72612;BME280;60655;52.182;4.474;2024-01-15T07:17:49;100096.59;;;2.40;100.00
72612;BME280;60655;52.182;4.474;2024-01-15T07:19:49;100089.94;;;2.52;100.00
72612;BME280;60655;52.182;4.474;2024-01-15T07:21:50;100088.47;;;2.50;100.00
72612;BME280;60655;52.182;4.474;2024-01-15T07:23:51;100088.22;;;2.45;100.00
72612;BME280;60655;52.182;4.474;2024-01-15T07:25:52;100110.25;;;2.50;100.00
72612;BME280;60655;52.182;4.474;2024-01-15T07:27:54;100106.91;;;2.71;100.00
72612;BME280;60655;52.182;4.474;2024-01-15T07:29:55;100111.56;;;2.90;100.00
72612;BME280;60655;52.182;4.474;2024-01-15T07:31:56;100105.06;;;2.86;100.00
72612;BME280;60655;52.182;4.474;2024-01-15T07:33:57;100105.25;;;2.85;100.00
72612;BME280;60655;52.182;4.474;2024-01-15T07:35:58;100094.31;;;2.81;100.00
72612;BME280;60655;52.182;4.474;2024-01-15T07:37:59;100094.91;;;2.98;100.00
72612;BME280;60655;52.182;4.474;2024-01-15T07:40:00;100102.69;;;2.91;100.00
72612;BME280;60655;52.182;4.474;2024-01-15T07:42:01;100093.59;;;2.87;100.00
72612;BME280;60655;52.182;4.474;2024-01-15T07:44:02;100096.97;;;3.02;100.00
72612;BME280;60655;52.182;4.474;2024-01-15T07:46:03;100099.06;;;3.07;100.00
72612;BME280;60655;52.182;4.474;2024-01-15T07:48:05;100110.44;;;3.14;100.00
72612;BME280;60655;52.182;4.474;2024-01-15T07:50:06;100109.75;;;3.27;97.48
72612;BME280;60655;52.182;4.474;2024-01-15T07:52:07;100101.50;;;3.30;96.15
72612;BME280;60655;52.182;4.474;2024-01-15T07:54:08;100113.88;;;3.36;95.26
72612;BME280;60655;52.182;4.474;2024-01-15T07:56:09;100112.34;;;3.42;96.40
72612;BME280;60655;52.182;4.474;2024-01-15T07:58:09;100120.66;;;3.45;96.10
72612;BME280;60655;52.182;4.474;2024-01-15T08:00:11;100107.13;;;3.48;96.72
72612;BME280;60655;52.182;4.474;2024-01-15T08:02:11;100123.06;;;3.47;93.05
72612;BME280;60655;52.182;4.474;2024-01-15T08:04:13;100122.66;;;3.43;91.35
72612;BME280;60655;52.182;4.474;2024-01-15T08:06:13;100127.09;;;3.43;90.56
72612;BME280;60655;52.182;4.474;2024-01-15T08:08:14;100124.03;;;3.39;90.52
72612;BME280;60655;52.182;4.474;2024-01-15T08:10:15;100114.06;;;3.34;90.57
72612;BME280;60655;52.182;4.474;2024-01-15T08:12:16;100120.84;;;3.44;91.24
72612;BME280;60655;52.182;4.474;2024-01-15T08:14:17;100116.22;;;3.46;89.79
72612;BME280;60655;52.182;4.474;2024-01-15T08:16:18;100115.00;;;3.48;90.40
72612;BME280;60655;52.182;4.474;2024-01-15T08:18:19;100144.06;;;3.47;86.50
72612;BME280;60655;52.182;4.474;2024-01-15T08:20:22;100111.38;;;3.49;85.04
72612;BME280;60655;52.182;4.474;2024-01-15T08:22:23;100126.31;;;3.49;84.35
72612;BME280;60655;52.182;4.474;2024-01-15T08:24:24;100133.25;;;3.56;84.98
72612;BME280;60655;52.182;4.474;2024-01-15T08:26:25;100125.56;;;3.55;84.83
72612;BME280;60655;52.182;4.474;2024-01-15T08:28:25;100124.56;;;3.56;84.78
72612;BME280;60655;52.182;4.474;2024-01-15T08:30:26;100132.16;;;3.65;86.48
72612;BME280;60655;52.182;4.474;2024-01-15T08:32:28;100157.28;;;3.53;92.42
72612;BME280;60655;52.182;4.474;2024-01-15T08:34:29;100157.97;;;3.04;100.00
72612;BME280;60655;52.182;4.474;2024-01-15T08:36:30;100161.16;;;2.70;100.00
72612;BME280;60655;52.182;4.474;2024-01-15T08:38:31;100155.63;;;2.36;100.00
72612;BME280;60655;52.182;4.474;2024-01-15T08:40:32;100166.38;;;2.26;100.00
72612;BME280;60655;52.182;4.474;2024-01-15T08:42:33;100154.75;;;2.06;100.00
72612;BME280;60655;52.182;4.474;2024-01-15T08:44:34;100148.28;;;2.17;100.00
72612;BME280;60655;52.182;4.474;2024-01-15T08:46:35;100141.88;;;2.19;100.00
72612;BME280;60655;52.182;4.474;2024-01-15T08:48:36;100145.13;;;2.21;100.00
72612;BME280;60655;52.182;4.474;2024-01-15T08:50:37;100148.50;;;2.30;100.00
72612;BME280;60655;52.182;4.474;2024-01-15T08:52:38;100144.69;;;2.32;100.00
72612;BME280;60655;52.182;4.474;2024-01-15T08:54:39;100140.72;;;2.36;100.00
72612;BME280;60655;52.182;4.474;2024-01-15T08:56:39;100135.47;;;2.36;100.00
72612;BME280;60655;52.182;4.474;2024-01-15T08:58:40;100147.16;;;2.49;100.00
72612;BME280;60655;52.182;4.474;2024-01-15T09:00:41;100145.88;;;2.45;100.00
72612;BME280;60655;52.182;4.474;2024-01-15T09:02:44;100144.00;;;2.53;100.00
72612;BME280;60655;52.182;4.474;2024-01-15T09:04:45;100152.22;;;2.50;100.00
72612;BME280;60655;52.182;4.474;2024-01-15T09:06:46;100141.53;;;2.66;100.00
72612;BME280;60655;52.182;4.474;2024-01-15T09:08:47;100149.75;;;2.78;100.00
72612;BME280;60655;52.182;4.474;2024-01-15T09:10:48;100151.53;;;2.92;100.00
72612;BME280;60655;52.182;4.474;2024-01-15T09:12:49;100157.31;;;3.02;100.00
72612;BME280;60655;52.182;4.474;2024-01-15T09:14:50;100154.16;;;3.07;100.00
72612;BME280;60655;52.182;4.474;2024-01-15T09:16:51;100157.50;;;3.01;100.00
72612;BME280;60655;52.182;4.474;2024-01-15T09:18:52;100167.22;;;2.86;100.00
72612;BME280;60655;52.182;4.474;2024-01-15T09:20:53;100165.75;;;2.68;100.00
72612;BME280;60655;52.182;4.474;2024-01-15T09:22:54;100152.13;;;2.58;100.00
72612;BME280;60655;52.182;4.474;2024-01-15T09:24:54;100150.13;;;2.46;100.00
72612;BME280;60655;52.182;4.474;2024-01-15T09:26:55;100150.22;;;2.52;100.00
72612;BME280;60655;52.182;4.474;2024-01-15T09:28:57;100163.88;;;2.48;100.00
72612;BME280;60655;52.182;4.474;2024-01-15T09:30:58;100159.44;;;2.63;100.00
72612;BME280;60655;52.182;4.474;2024-01-15T09:32:59;100163.03;;;2.91;100.00
72612;BME280;60655;52.182;4.474;2024-01-15T09:35:00;100160.41;;;3.06;100.00
72612;BME280;60655;52.182;4.474;2024-01-15T09:37:00;100157.59;;;3.08;100.00
72612;BME280;60655;52.182;4.474;2024-01-15T09:39:02;100157.03;;;3.12;100.00
72612;BME280;60655;52.182;4.474;2024-01-15T09:41:03;100152.44;;;3.14;100.00
72612;BME280;60655;52.182;4.474;2024-01-15T09:43:04;100157.81;;;3.27;100.00
72612;BME280;60655;52.182;4.474;2024-01-15T09:45:06;100157.25;;;3.32;100.00
72612;BME280;60655;52.182;4.474;2024-01-15T09:47:07;100154.34;;;3.42;100.00
72612;BME280;60655;52.182;4.474;2024-01-15T09:49:08;100151.75;;;3.48;100.00
72612;BME280;60655;52.182;4.474;2024-01-15T09:51:09;100153.56;;;3.48;100.00
72612;BME280;60655;52.182;4.474;2024-01-15T09:53:11;100140.31;;;3.56;100.00
72612;BME280;60655;52.182;4.474;2024-01-15T09:55:15;100143.31;;;3.53;100.00
72612;BME280;60655;52.182;4.474;2024-01-15T09:57:17;100154.34;;;3.63;100.00
72612;BME280;60655;52.182;4.474;2024-01-15T09:59:18;100146.78;;;3.75;100.00
72612;BME280;60655;52.182;4.474;2024-01-15T10:01:22;100157.78;;;3.85;100.00
72612;BME280;60655;52.182;4.474;2024-01-15T10:03:23;100162.72;;;3.73;99.92
72612;BME280;60655;52.182;4.474;2024-01-15T10:05:24;100183.13;;;3.71;96.14
72612;BME280;60655;52.182;4.474;2024-01-15T10:07:25;100177.25;;;3.69;98.43
72612;BME280;60655;52.182;4.474;2024-01-15T10:09:26;100182.97;;;3.58;100.00
72612;BME280;60655;52.182;4.474;2024-01-15T10:11:27;100194.84;;;3.54;100.00
72612;BME280;60655;52.182;4.474;2024-01-15T10:13:29;100212.22;;;3.55;100.00
72612;BME280;60655;52.182;4.474;2024-01-15T10:15:34;100207.78;;;3.19;100.00
72612;BME280;60655;52.182;4.474;2024-01-15T10:17:38;100198.88;;;2.84;100.00
72612;BME280;60655;52.182;4.474;2024-01-15T10:19:39;100191.00;;;2.69;100.00
72612;BME280;60655;52.182;4.474;2024-01-15T10:21:42;100182.13;;;2.70;100.00
72612;BME280;60655;52.182;4.474;2024-01-15T10:23:42;100181.97;;;2.57;100.00
72612;BME280;60655;52.182;4.474;2024-01-15T10:25:43;100180.78;;;2.60;100.00
72612;BME280;60655;52.182;4.474;2024-01-15T10:27:45;100177.59;;;2.64;100.00
72612;BME280;60655;52.182;4.474;2024-01-15T10:29:59;100174.34;;;2.77;100.00
72612;BME280;60655;52.182;4.474;2024-01-15T10:32:01;100179.94;;;2.89;100.00
72612;BME280;60655;52.182;4.474;2024-01-15T10:34:12;100188.00;;;3.02;100.00
72612;BME280;60655;52.182;4.474;2024-01-15T10:36:13;100202.47;;;3.13;100.00